createdAt,value
2018-01-17T00:01:44.162Z,51.16
2018-01-17T00:04:10.349Z,50.97
2018-01-17T00:06:36.535Z,50.96
2018-01-17T00:09:02.866Z,50.99
2018-01-17T00:11:29.105Z,50.97
2018-01-17T00:13:55.338Z,51.61
2018-01-17T00:16:21.914Z,51.59
2018-01-17T00:18:48.129Z,51.63
2018-01-17T00:21:14.326Z,51.57
2018-01-17T00:23:40.577Z,51.33
2018-01-17T00:26:06.791Z,51.57
2018-01-17T00:28:33.014Z,51.64
2018-01-17T00:30:59.273Z,51.71
2018-01-17T00:33:25.494Z,51.65
2018-01-17T00:35:51.726Z,51.79
2018-01-17T00:38:17.998Z,51.68
2018-01-17T00:40:44.267Z,51.77
2018-01-17T00:43:10.756Z,51.78
2018-01-17T00:45:36.983Z,51.86
2018-01-17T00:48:03.512Z,51.80
2018-01-17T00:50:29.952Z,51.85
2018-01-17T00:52:56.209Z,51.70
2018-01-17T00:55:22.828Z,51.86
2018-01-17T00:57:49.210Z,51.84
2018-01-17T01:00:15.461Z,51.98
2018-01-17T01:02:42.027Z,52.09
2018-01-17T01:05:08.274Z,52.19
2018-01-17T01:07:34.463Z,52.95
2018-01-17T01:10:00.766Z,52.99
2018-01-17T01:12:27.011Z,52.96
2018-01-17T01:14:53.466Z,52.99
2018-01-17T01:17:20.006Z,52.67
2018-01-17T01:19:46.254Z,52.75
2018-01-17T01:22:12.461Z,52.57
2018-01-17T01:24:38.714Z,52.36
2018-01-17T01:27:04.922Z,52.23
2018-01-17T01:29:31.198Z,52.36
2018-01-17T01:31:57.441Z,52.26
2018-01-17T01:34:23.661Z,52.20
2018-01-17T01:36:50.180Z,51.89
2018-01-17T01:39:16.367Z,51.83
2018-01-17T01:41:42.569Z,51.84
2018-01-17T01:44:09.093Z,52.09
2018-01-17T01:46:35.458Z,52.09
2018-01-17T01:49:01.984Z,52.03
2018-01-17T01:51:28.183Z,52.50
2018-01-17T01:53:54.465Z,52.54
2018-01-17T01:56:20.686Z,52.51
2018-01-17T01:58:46.894Z,52.61
2018-01-17T02:01:13.190Z,52.82
2018-01-17T02:03:39.410Z,52.87
2018-01-17T02:06:05.657Z,52.93
2018-01-17T02:08:31.935Z,52.90
2018-01-17T02:10:58.166Z,53.00
2018-01-17T02:13:24.598Z,53.09
2018-01-17T02:15:50.889Z,53.21
2018-01-17T02:18:17.152Z,53.14
2018-01-17T02:20:43.382Z,53.13
2018-01-17T02:23:09.977Z,53.11
2018-01-17T02:25:36.173Z,53.12
2018-01-17T02:28:02.377Z,53.26
2018-01-17T02:30:28.993Z,53.22
2018-01-17T02:32:55.203Z,53.17
2018-01-17T02:35:21.765Z,53.16
2018-01-17T02:37:48.003Z,53.05
2018-01-17T02:40:26.402Z,53.66
2018-01-17T02:42:52.635Z,53.29
2018-01-17T02:45:18.897Z,53.10
2018-01-17T02:47:45.469Z,53.57
2018-01-17T02:50:11.660Z,53.21
2018-01-17T02:52:37.890Z,52.95
2018-01-17T02:55:04.429Z,53.25
2018-01-17T02:57:30.686Z,53.07
2018-01-17T02:59:56.909Z,52.80
2018-01-17T03:02:23.446Z,52.50
2018-01-17T03:04:49.715Z,52.55
2018-01-17T03:07:15.975Z,52.42
2018-01-17T03:09:42.269Z,52.50
2018-01-17T03:12:08.501Z,52.53
2018-01-17T03:14:34.695Z,53.00
2018-01-17T03:17:00.984Z,52.83
2018-01-17T03:19:27.202Z,52.82
2018-01-17T03:21:53.432Z,52.79
2018-01-17T03:24:19.941Z,52.64
2018-01-17T03:26:46.241Z,52.60
2018-01-17T03:29:12.811Z,52.44
2018-01-17T03:31:39.089Z,52.38
2018-01-17T03:34:05.344Z,52.38
2018-01-17T03:36:31.542Z,52.52
2018-01-17T03:38:57.818Z,52.35
2018-01-17T03:41:24.046Z,52.42
2018-01-17T03:43:50.277Z,52.49
2018-01-17T03:46:16.549Z,52.54
2018-01-17T03:48:42.814Z,52.38
2018-01-17T03:51:09.055Z,52.30
2018-01-17T03:53:35.310Z,52.36
2018-01-17T03:56:01.707Z,52.34
2018-01-17T03:58:27.922Z,52.37
2018-01-17T04:00:54.173Z,52.99
2018-01-17T04:03:20.762Z,53.40
2018-01-17T04:05:46.978Z,53.54
2018-01-17T04:08:13.185Z,53.83
2018-01-17T04:10:39.470Z,53.35
2018-01-17T04:13:05.959Z,53.08
2018-01-17T04:15:32.576Z,53.18
2018-01-17T04:17:59.120Z,53.17
2018-01-17T04:20:25.352Z,52.90
2018-01-17T04:22:51.918Z,53.15
2018-01-17T04:25:18.117Z,53.21
2018-01-17T04:27:44.315Z,53.14
2018-01-17T04:30:10.565Z,53.17
2018-01-17T04:32:36.773Z,53.04
2018-01-17T04:35:03.064Z,53.60
2018-01-17T04:37:30.073Z,53.61
2018-01-17T04:39:56.318Z,53.55
2018-01-17T04:42:22.840Z,53.43
2018-01-17T04:44:49.415Z,53.37
2018-01-17T04:47:15.699Z,53.26
2018-01-17T04:49:41.909Z,53.33
2018-01-17T04:52:08.235Z,53.19
2018-01-17T04:54:34.454Z,53.25
2018-01-17T04:57:00.755Z,53.16
2018-01-17T04:59:26.998Z,53.13
2018-01-17T05:01:53.210Z,53.00
2018-01-17T05:04:19.502Z,52.92
2018-01-17T05:06:45.745Z,52.87
2018-01-17T05:09:11.975Z,52.88
2018-01-17T05:11:38.488Z,52.87
2018-01-17T05:14:04.686Z,53.13
2018-01-17T05:16:30.905Z,53.46
2018-01-17T05:18:57.194Z,53.66
2018-01-17T05:21:23.446Z,53.50
2018-01-17T05:23:49.629Z,53.53
2018-01-17T05:26:15.984Z,53.37
2018-01-17T05:28:42.191Z,53.16
2018-01-17T05:31:08.360Z,53.81
2018-01-17T05:33:35.265Z,53.75
2018-01-17T05:36:01.467Z,54.43
2018-01-17T05:38:28.066Z,54.64
2018-01-17T05:40:54.585Z,54.51
2018-01-17T05:43:20.812Z,54.33
2018-01-17T05:45:47.011Z,54.40
2018-01-17T05:48:13.349Z,54.31
2018-01-17T05:50:39.559Z,54.31
2018-01-17T05:53:05.810Z,54.31
2018-01-17T05:55:32.065Z,53.19
2018-01-17T05:57:58.280Z,52.93
2018-01-17T06:00:24.557Z,52.81
2018-01-17T06:02:50.814Z,52.73
2018-01-17T06:05:17.012Z,52.61
2018-01-17T06:07:43.488Z,52.57
2018-01-17T06:10:09.643Z,52.55
2018-01-17T06:12:35.866Z,52.51
2018-01-17T06:15:02.107Z,52.55
2018-01-17T06:17:28.318Z,52.46
2018-01-17T06:19:54.508Z,52.41
2018-01-17T06:22:21.029Z,52.32
2018-01-17T06:24:47.286Z,52.37
2018-01-17T06:27:13.511Z,53.93
2018-01-17T06:29:39.766Z,54.17
2018-01-17T06:32:06.263Z,53.52
2018-01-17T06:34:32.730Z,53.74
2018-01-17T06:36:59.545Z,53.99
2018-01-17T06:39:26.080Z,54.02
2018-01-17T06:41:52.524Z,54.00
2018-01-17T06:44:18.770Z,53.87
2018-01-17T06:46:44.986Z,53.62
2018-01-17T06:49:11.599Z,53.44
2018-01-17T06:51:37.852Z,53.42
2018-01-17T06:54:04.059Z,53.25
2018-01-17T06:56:30.285Z,53.15
2018-01-17T06:58:56.482Z,53.08
2018-01-17T07:01:23.067Z,52.93
2018-01-17T07:03:49.259Z,52.93
2018-01-17T07:06:15.483Z,52.98
2018-01-17T07:08:42.039Z,52.97
2018-01-17T07:11:08.238Z,53.08
2018-01-17T07:13:34.525Z,53.16
2018-01-17T07:16:00.765Z,53.15
2018-01-17T07:18:26.978Z,52.56
2018-01-17T07:20:53.225Z,52.36
2018-01-17T07:23:19.462Z,52.44
2018-01-17T07:25:45.673Z,52.54
2018-01-17T07:28:11.884Z,52.28
2018-01-17T07:30:38.094Z,52.16
2018-01-17T07:33:04.382Z,52.15
2018-01-17T07:35:30.866Z,52.08
2018-01-17T07:37:57.094Z,52.10
2018-01-17T07:40:23.737Z,52.03
2018-01-17T07:42:50.272Z,52.04
2018-01-17T07:45:16.494Z,51.94
2018-01-17T07:47:43.050Z,51.86
2018-01-17T07:50:09.277Z,51.80
2018-01-17T07:52:35.455Z,51.82
2018-01-17T07:55:02.034Z,51.79
2018-01-17T07:57:28.243Z,51.73
2018-01-17T07:59:54.441Z,51.65
2018-01-17T08:02:21.009Z,51.66
2018-01-17T08:04:47.232Z,51.67
2018-01-17T08:07:13.425Z,51.65
2018-01-17T08:09:39.714Z,51.66
2018-01-17T08:12:05.976Z,51.55
2018-01-17T08:14:32.205Z,51.51
2018-01-17T08:16:58.477Z,51.49
2018-01-17T08:19:24.666Z,51.50
2018-01-17T08:21:51.142Z,51.52
2018-01-17T08:24:17.364Z,51.46
2018-01-17T08:26:43.577Z,51.48
2018-01-17T08:29:10.110Z,51.44
2018-01-17T08:31:36.322Z,51.37
2018-01-17T08:34:02.749Z,51.34
2018-01-17T08:36:29.028Z,51.23
2018-01-17T08:38:55.566Z,51.18
2018-01-17T08:41:21.757Z,51.13
2018-01-17T08:43:48.002Z,51.10
2018-01-17T08:46:14.226Z,51.05
2018-01-17T08:48:40.585Z,50.95
2018-01-17T08:51:06.845Z,50.93
2018-01-17T08:53:33.038Z,50.86
2018-01-17T08:55:59.704Z,50.75
2018-01-17T08:58:25.884Z,50.74
2018-01-17T09:00:52.117Z,50.62
2018-01-17T09:03:18.392Z,50.54
2018-01-17T09:05:44.592Z,50.53
2018-01-17T09:08:10.792Z,50.48
2018-01-17T09:10:37.012Z,50.41
2018-01-17T09:13:03.243Z,50.44
2018-01-17T09:15:29.486Z,50.41
2018-01-17T09:17:55.672Z,50.39
2018-01-17T09:20:21.935Z,50.39
2018-01-17T09:22:48.190Z,50.40
2018-01-17T09:25:14.721Z,50.36
2018-01-17T09:27:40.965Z,50.33
2018-01-17T09:30:07.303Z,50.25
2018-01-17T09:32:33.554Z,50.28
2018-01-17T09:34:59.770Z,50.26
2018-01-17T09:37:26.009Z,50.20
2018-01-17T09:39:52.217Z,50.26
2018-01-17T09:42:18.444Z,50.07
2018-01-17T09:44:44.723Z,49.99
2018-01-17T09:47:10.946Z,49.96
2018-01-17T09:49:37.289Z,49.88
2018-01-17T09:52:03.530Z,49.86
2018-01-17T09:54:29.762Z,49.69
2018-01-17T09:56:56.032Z,49.50
2018-01-17T09:59:22.220Z,49.41
2018-01-17T10:01:48.415Z,49.44
2018-01-17T10:04:14.685Z,49.64
2018-01-17T10:06:40.862Z,49.68
2018-01-17T10:09:07.101Z,49.78
2018-01-17T10:11:33.733Z,49.82
2018-01-17T10:13:59.944Z,49.84
2018-01-17T10:16:26.159Z,49.87
2018-01-17T10:18:52.404Z,49.75
2018-01-17T10:21:18.613Z,49.61
2018-01-17T10:23:45.174Z,49.37
2018-01-17T10:26:11.409Z,49.15
2018-01-17T10:28:37.705Z,49.03
2018-01-17T10:31:03.879Z,48.82
2018-01-17T10:33:30.101Z,48.60
2018-01-17T10:35:56.665Z,48.54
2018-01-17T10:38:22.868Z,48.43
2018-01-17T10:40:49.110Z,48.25
2018-01-17T10:43:15.659Z,47.90
2018-01-17T10:45:42.185Z,47.62
2018-01-17T10:48:08.442Z,47.59
2018-01-17T10:50:34.772Z,47.42
2018-01-17T10:53:00.973Z,47.24
2018-01-17T10:55:27.274Z,47.21
2018-01-17T10:57:53.501Z,46.93
2018-01-17T11:00:19.765Z,46.88
2018-01-17T11:02:46.297Z,47.00
2018-01-17T11:05:12.471Z,46.99
2018-01-17T11:07:38.663Z,46.82
2018-01-17T11:10:05.248Z,46.83
2018-01-17T11:12:31.449Z,47.20
2018-01-17T11:14:57.645Z,47.25
2018-01-17T11:17:23.925Z,47.11
2018-01-17T11:19:50.147Z,47.32
2018-01-17T11:22:16.628Z,48.08
2018-01-17T11:24:42.918Z,48.14
2018-01-17T11:27:09.187Z,48.25
2018-01-17T11:29:35.473Z,48.22
2018-01-17T11:32:01.708Z,48.39
2018-01-17T11:34:28.388Z,47.93
2018-01-17T11:36:54.652Z,48.34
2018-01-17T11:39:21.557Z,48.61
2018-01-17T11:41:47.809Z,48.82
2018-01-17T11:44:14.329Z,48.65
2018-01-17T11:46:40.644Z,48.77
2018-01-17T11:49:06.900Z,49.00
2018-01-17T11:51:33.217Z,49.19
2018-01-17T11:53:59.509Z,49.17
2018-01-17T11:56:25.734Z,49.08
2018-01-17T11:58:51.992Z,48.63
2018-01-17T12:01:18.246Z,48.72
2018-01-17T12:03:44.456Z,48.66
2018-01-17T12:06:11.241Z,48.65
2018-01-17T12:08:37.528Z,48.58
2018-01-17T12:11:04.006Z,48.63
2018-01-17T12:13:30.246Z,49.27
2018-01-17T12:15:56.480Z,49.36
2018-01-17T12:18:23.047Z,49.47
2018-01-17T12:20:49.245Z,49.43
2018-01-17T12:23:15.468Z,49.43
2018-01-17T12:25:41.717Z,49.53
2018-01-17T12:28:07.961Z,49.40
2018-01-17T12:30:34.177Z,49.39
2018-01-17T12:33:00.441Z,49.46
2018-01-17T12:35:26.658Z,49.40
2018-01-17T12:37:52.925Z,49.05
2018-01-17T12:40:19.148Z,48.76
2018-01-17T12:42:46.679Z,48.59
2018-01-17T12:45:12.991Z,48.42
2018-01-17T12:47:39.241Z,48.48
2018-01-17T12:50:05.465Z,48.76
2018-01-17T12:52:32.002Z,48.92
2018-01-17T12:54:58.194Z,48.79
2018-01-17T12:57:24.668Z,49.05
2018-01-17T12:59:50.944Z,48.84
2018-01-17T13:02:17.132Z,48.75
2018-01-17T13:04:43.354Z,48.64
2018-01-17T13:07:09.969Z,48.66
2018-01-17T13:09:36.500Z,48.77
2018-01-17T13:12:02.913Z,48.91
2018-01-17T13:14:29.293Z,49.01
2018-01-17T13:16:55.500Z,49.07
2018-01-17T13:21:53.565Z,49.24
2018-01-17T13:24:20.125Z,49.32
2018-01-17T13:26:46.351Z,49.36
2018-01-17T13:29:12.889Z,49.39
2018-01-17T13:31:39.173Z,49.34
2018-01-17T13:34:05.473Z,49.29
2018-01-17T13:36:31.700Z,49.21
2018-01-17T13:38:57.901Z,49.20
2018-01-17T13:41:24.120Z,49.16
2018-01-17T13:43:50.304Z,49.17
2018-01-17T13:46:16.545Z,49.14
2018-01-17T13:48:42.800Z,49.13
2018-01-17T13:51:09.450Z,49.11
2018-01-17T13:53:35.724Z,49.02
2018-01-17T13:56:02.320Z,48.80
2018-01-17T13:58:28.500Z,48.71
2018-01-17T14:00:54.746Z,48.65
2018-01-17T14:03:20.989Z,48.48
2018-01-17T14:05:47.214Z,48.28
2018-01-17T14:08:13.465Z,48.06
2018-01-17T14:10:39.669Z,48.13
2018-01-17T14:13:06.323Z,48.21
2018-01-17T14:15:32.538Z,48.18
2018-01-17T14:17:58.796Z,48.26
2018-01-17T14:20:25.057Z,48.65
2018-01-17T14:22:51.282Z,48.70
2018-01-17T14:25:17.490Z,48.58
2018-01-17T14:27:43.757Z,48.52
2018-01-17T14:30:09.958Z,48.46
2018-01-17T14:32:36.178Z,48.37
2018-01-17T14:35:02.733Z,48.28
2018-01-17T14:37:28.944Z,48.17
2018-01-17T14:39:55.143Z,48.20
2018-01-17T14:42:21.718Z,48.31
2018-01-17T14:44:47.957Z,48.80
2018-01-17T14:47:14.177Z,48.89
2018-01-17T14:49:40.408Z,48.91
2018-01-17T14:52:06.631Z,48.89
2018-01-17T14:54:32.830Z,49.01
2018-01-17T14:56:59.461Z,48.91
2018-01-17T14:59:25.696Z,48.93
2018-01-17T15:01:51.942Z,48.95
2018-01-17T15:04:18.209Z,48.96
2018-01-17T15:06:44.689Z,49.03
2018-01-17T15:09:11.210Z,49.10
2018-01-17T15:11:37.476Z,49.09
2018-01-17T15:14:03.778Z,49.13
2018-01-17T15:16:30.186Z,49.09
2018-01-17T15:18:56.550Z,49.11
2018-01-17T15:21:23.166Z,49.14
2018-01-17T15:23:49.460Z,49.21
2018-01-17T15:26:15.681Z,49.29
2018-01-17T15:28:41.940Z,49.21
2018-01-17T15:31:08.191Z,49.01
2018-01-17T15:33:34.412Z,49.02
2018-01-17T15:36:00.651Z,48.95
2018-01-17T15:38:26.935Z,48.91
2018-01-17T15:40:53.171Z,48.93
2018-01-17T15:43:19.451Z,48.88
2018-01-17T15:45:45.717Z,48.91
2018-01-17T15:48:11.933Z,48.84
2018-01-17T15:50:38.219Z,48.79
2018-01-17T15:53:04.850Z,48.75
2018-01-17T15:55:31.042Z,48.76
2018-01-17T15:57:57.301Z,48.76
2018-01-17T16:00:23.516Z,48.75
2018-01-17T16:02:49.709Z,48.76
2018-01-17T16:05:16.009Z,48.76
2018-01-17T16:07:42.199Z,48.72
2018-01-17T16:10:08.409Z,48.71
2018-01-17T16:12:34.678Z,48.70
2018-01-17T16:15:00.901Z,48.73
2018-01-17T16:17:27.136Z,48.74
2018-01-17T16:19:53.461Z,48.74
2018-01-17T16:22:19.666Z,48.71
2018-01-17T16:24:46.003Z,48.65
2018-01-17T16:27:12.254Z,48.60
2018-01-17T16:29:38.813Z,48.59
2018-01-17T16:32:05.034Z,48.59
2018-01-17T16:34:31.271Z,48.58
2018-01-17T16:36:57.555Z,48.54
2018-01-17T16:39:23.765Z,48.53
2018-01-17T16:41:49.951Z,48.54
2018-01-17T16:44:16.534Z,48.59
2018-01-17T16:46:42.740Z,48.61
2018-01-17T16:49:08.931Z,48.72
2018-01-17T16:51:35.561Z,48.57
2018-01-17T16:54:01.745Z,48.53
2018-01-17T16:56:27.942Z,48.52
2018-01-17T16:58:54.187Z,48.51
2018-01-17T17:01:20.416Z,48.43
2018-01-17T17:03:46.722Z,48.44
2018-01-17T17:06:12.998Z,48.46
2018-01-17T17:08:39.241Z,48.45
2018-01-17T17:11:05.517Z,48.43
2018-01-17T17:13:31.782Z,48.36
2018-01-17T17:15:58.266Z,48.33
2018-01-17T17:18:24.891Z,48.39
2018-01-17T17:20:51.425Z,48.37
2018-01-17T17:23:17.674Z,48.36
2018-01-17T17:25:44.248Z,48.36
2018-01-17T17:28:10.424Z,48.37
2018-01-17T17:30:36.950Z,48.38
2018-01-17T17:33:03.196Z,48.41
2018-01-17T17:35:29.411Z,48.41
2018-01-17T17:37:55.645Z,48.39
2018-01-17T17:40:21.852Z,48.41
2018-01-17T17:42:48.054Z,48.41
2018-01-17T17:45:14.318Z,48.37
2018-01-17T17:47:40.857Z,48.34
2018-01-17T17:50:07.057Z,48.40
2018-01-17T17:52:33.689Z,48.30
2018-01-17T17:54:59.917Z,48.26
2018-01-17T17:57:26.142Z,48.24
2018-01-17T17:59:52.393Z,48.21
2018-01-17T18:02:18.656Z,48.15
2018-01-17T18:04:44.928Z,48.18
2018-01-17T18:07:11.218Z,48.14
2018-01-17T18:09:37.510Z,48.16
2018-01-17T18:12:03.740Z,48.14
2018-01-17T18:14:30.030Z,48.08
2018-01-17T18:16:56.214Z,48.02
2018-01-17T18:19:22.445Z,48.03
2018-01-17T18:21:48.681Z,47.97
2018-01-17T18:24:14.949Z,48.02
2018-01-17T18:26:41.154Z,47.97
2018-01-17T18:29:07.660Z,47.97
2018-01-17T18:31:34.205Z,48.00
2018-01-17T18:34:00.504Z,47.93
2018-01-17T18:36:27.057Z,47.95
2018-01-17T18:38:53.635Z,47.92
2018-01-17T18:41:19.926Z,47.98
2018-01-17T18:43:46.162Z,47.93
2018-01-17T18:46:12.453Z,47.98
2018-01-17T18:48:38.703Z,47.91
2018-01-17T18:51:04.929Z,47.93
2018-01-17T18:53:31.514Z,47.98
2018-01-17T18:55:57.744Z,47.94
2018-01-17T18:58:23.990Z,47.94
2018-01-17T19:00:50.253Z,47.88
2018-01-17T19:03:16.481Z,47.93
2018-01-17T19:05:42.809Z,47.91
2018-01-17T19:08:09.068Z,48.14
2018-01-17T19:10:35.331Z,48.25
2018-01-17T19:13:02.032Z,48.43
2018-01-17T19:15:28.273Z,48.50
2018-01-17T19:17:54.511Z,48.50
2018-01-17T19:20:20.740Z,48.45
2018-01-17T19:22:47.433Z,48.50
2018-01-17T19:25:13.941Z,48.52
2018-01-17T19:27:40.163Z,48.49
2018-01-17T19:30:06.417Z,48.48
2018-01-17T19:32:32.642Z,48.55
2018-01-17T19:34:58.830Z,48.59
2018-01-17T19:37:25.086Z,48.18
2018-01-17T19:39:52.238Z,47.92
2018-01-17T19:42:18.566Z,47.83
2018-01-17T19:44:44.822Z,47.82
2018-01-17T19:47:11.020Z,47.77
2018-01-17T19:49:37.262Z,47.76
2018-01-17T19:52:03.504Z,47.71
2018-01-17T19:54:29.748Z,47.70
2018-01-17T19:56:55.936Z,47.65
2018-01-17T19:59:22.193Z,47.60
2018-01-17T20:01:48.382Z,47.55
2018-01-17T20:04:14.605Z,47.54
2018-01-17T20:06:40.989Z,47.49
2018-01-17T20:09:07.192Z,47.43
2018-01-17T20:11:33.483Z,47.49
2018-01-17T20:13:59.737Z,47.47
2018-01-17T20:16:25.945Z,47.41
2018-01-17T20:18:52.138Z,47.46
2018-01-17T20:21:18.758Z,47.46
2018-01-17T20:23:45.014Z,47.57
2018-01-17T20:26:11.281Z,47.91
2018-01-17T20:28:37.570Z,47.75
2018-01-17T20:31:03.835Z,47.79
2018-01-17T20:33:30.498Z,48.02
2018-01-17T20:35:56.849Z,48.27
2018-01-17T20:38:23.155Z,47.90
2018-01-17T20:40:49.361Z,48.12
2018-01-17T20:43:15.610Z,48.12
2018-01-17T20:45:42.858Z,48.23
2018-01-17T20:48:09.095Z,48.46
2018-01-17T20:50:35.450Z,48.36
2018-01-17T20:53:01.770Z,48.31
2018-01-17T20:55:28.069Z,48.37
2018-01-17T20:57:54.381Z,48.30
2018-01-17T21:00:20.738Z,48.40
2018-01-17T21:02:46.969Z,48.22
2018-01-17T21:05:13.342Z,48.30
2018-01-17T21:07:39.557Z,48.53
2018-01-17T21:10:05.773Z,48.76
2018-01-17T21:12:32.078Z,48.24
2018-01-17T21:14:58.265Z,48.09
2018-01-17T21:17:24.768Z,48.19
2018-01-17T21:19:51.342Z,48.13
2018-01-17T21:22:17.603Z,48.20
2018-01-17T21:24:43.934Z,48.24
2018-01-17T21:27:10.288Z,48.06
2018-01-17T21:29:36.477Z,48.10
2018-01-17T21:32:02.710Z,48.08
2018-01-17T21:34:29.354Z,48.10
2018-01-17T21:36:55.562Z,48.25
2018-01-17T21:39:21.757Z,48.25
2018-01-17T21:41:48.041Z,48.44
2018-01-17T21:44:20.318Z,48.35
2018-01-17T21:46:46.500Z,48.35
2018-01-17T21:49:12.808Z,48.62
2018-01-17T21:51:39.162Z,48.87
2018-01-17T21:54:05.412Z,48.81
2018-01-17T21:56:31.654Z,48.65
2018-01-17T21:58:57.966Z,48.72
2018-01-17T22:01:24.557Z,48.93
2018-01-17T22:03:50.786Z,48.82
2018-01-17T22:06:17.282Z,48.69
2018-01-17T22:08:43.854Z,48.71
2018-01-17T22:11:10.156Z,49.11
2018-01-17T22:13:36.612Z,48.71
2018-01-17T22:16:02.816Z,48.73
2018-01-17T22:18:29.413Z,48.58
2018-01-17T22:20:55.661Z,48.51
2018-01-17T22:23:21.905Z,48.53
2018-01-17T22:25:48.442Z,48.58
2018-01-17T22:28:14.668Z,48.71
2018-01-17T22:30:40.918Z,48.40
2018-01-17T22:33:07.570Z,49.05
2018-01-17T22:35:33.745Z,49.06
2018-01-17T22:37:59.949Z,49.09
2018-01-17T22:40:26.225Z,49.00
2018-01-17T22:42:52.456Z,48.99
2018-01-17T22:45:19.007Z,49.02
2018-01-17T22:47:45.249Z,49.11
2018-01-17T22:50:11.788Z,49.16
2018-01-17T22:52:37.995Z,49.14
2018-01-17T22:55:04.216Z,49.19
2018-01-17T22:57:30.725Z,49.13
2018-01-17T22:59:57.310Z,49.08
2018-01-17T23:02:23.610Z,49.10
2018-01-17T23:04:49.893Z,49.12
2018-01-17T23:07:16.187Z,49.11
2018-01-17T23:09:42.412Z,49.08
2018-01-17T23:12:08.962Z,49.00
2018-01-17T23:14:35.489Z,49.11
2018-01-17T23:17:01.709Z,49.18
2018-01-17T23:19:27.962Z,49.14
2018-01-17T23:21:54.498Z,49.25
2018-01-17T23:24:20.927Z,49.29
2018-01-17T23:26:47.163Z,49.20
2018-01-17T23:29:14.089Z,49.19
2018-01-17T23:31:40.305Z,49.25
2018-01-17T23:34:06.561Z,49.26
2018-01-17T23:36:32.919Z,49.26
2018-01-17T23:38:59.164Z,49.35
2018-01-17T23:41:25.409Z,49.31
2018-01-17T23:43:52.197Z,49.41
2018-01-17T23:46:18.426Z,49.33
2018-01-17T23:48:44.661Z,49.37
2018-01-17T23:51:10.905Z,49.38
2018-01-17T23:53:37.102Z,49.38
2018-01-17T23:56:03.398Z,49.43
2018-01-17T23:58:29.945Z,49.47
